createdAt,value
2018-04-25T00:00:40.727Z,991.07
2018-04-25T00:01:40.715Z,991.06
2018-04-25T00:02:40.699Z,991.07
2018-04-25T00:03:40.695Z,991.02
2018-04-25T00:04:40.663Z,991.05
2018-04-25T00:05:40.654Z,991.03
2018-04-25T00:06:40.630Z,991.03
2018-04-25T00:07:40.607Z,991.02
2018-04-25T00:08:40.614Z,990.98
2018-04-25T00:09:40.576Z,991.00
2018-04-25T00:10:40.559Z,990.99
2018-04-25T00:11:40.541Z,990.94
2018-04-25T00:12:40.534Z,990.98
2018-04-25T00:13:40.505Z,990.99
2018-04-25T00:14:40.493Z,991.00
2018-04-25T00:15:40.476Z,990.98
2018-04-25T00:16:40.477Z,990.95
2018-04-25T00:17:40.435Z,990.98
2018-04-25T00:18:40.444Z,990.96
2018-04-25T00:19:40.398Z,990.94
2018-04-25T00:20:40.411Z,990.96
2018-04-25T00:21:40.373Z,990.92
2018-04-25T00:22:40.356Z,990.94
2018-04-25T00:23:40.343Z,990.88
2018-04-25T00:24:40.314Z,990.87
2018-04-25T00:25:40.306Z,990.89
2018-04-25T00:26:40.276Z,990.87
2018-04-25T00:27:40.265Z,990.92
2018-04-25T00:28:40.267Z,990.89
2018-04-25T00:29:40.227Z,990.86
2018-04-25T00:30:40.211Z,990.85
2018-04-25T00:31:40.192Z,990.85
2018-04-25T00:32:40.192Z,990.85
2018-04-25T00:33:40.157Z,990.83
2018-04-25T00:34:40.162Z,990.84
2018-04-25T00:35:40.125Z,990.81
2018-04-25T00:36:40.103Z,990.81
2018-04-25T00:37:40.106Z,990.83
2018-04-25T00:38:40.077Z,990.78
2018-04-25T00:39:40.045Z,990.72
2018-04-25T00:40:40.060Z,990.75
2018-04-25T00:41:40.034Z,990.73
2018-04-25T00:42:40.009Z,990.74
2018-04-25T00:43:39.983Z,990.72
2018-04-25T00:44:39.967Z,990.70
2018-04-25T00:45:39.976Z,990.73
2018-04-25T00:46:39.964Z,990.67
2018-04-25T00:47:39.915Z,990.69
2018-04-25T00:48:39.916Z,990.64
2018-04-25T00:49:39.883Z,990.64
2018-04-25T00:50:39.861Z,990.62
2018-04-25T00:51:39.845Z,990.60
2018-04-25T00:52:39.819Z,990.59
2018-04-25T00:53:39.804Z,990.60
2018-04-25T00:54:39.816Z,990.59
2018-04-25T00:55:39.775Z,990.63
2018-04-25T00:56:39.772Z,990.58
2018-04-25T00:57:39.762Z,990.58
2018-04-25T00:58:39.736Z,990.54
2018-04-25T00:59:39.717Z,990.53
2018-04-25T01:00:39.685Z,990.55
2018-04-25T01:01:39.682Z,990.50
2018-04-25T01:02:39.666Z,990.50
2018-04-25T01:03:39.624Z,990.50
2018-04-25T01:04:39.612Z,990.45
2018-04-25T01:05:39.599Z,990.47
2018-04-25T01:06:39.589Z,990.49
2018-04-25T01:07:39.569Z,990.42
2018-04-25T01:08:39.534Z,990.44
2018-04-25T01:09:39.521Z,990.42
2018-04-25T01:10:39.506Z,990.39
2018-04-25T01:11:39.517Z,990.37
2018-04-25T01:12:39.473Z,990.32
2018-04-25T01:13:39.447Z,990.33
2018-04-25T01:14:39.434Z,990.24
2018-04-25T01:15:39.434Z,990.24
2018-04-25T01:16:39.408Z,990.19
2018-04-25T01:17:39.377Z,990.19
2018-04-25T01:18:39.363Z,990.23
2018-04-25T01:19:39.348Z,990.18
2018-04-25T01:20:39.322Z,990.19
2018-04-25T01:21:39.312Z,990.17
2018-04-25T01:22:39.302Z,990.15
2018-04-25T01:23:39.274Z,990.15
2018-04-25T01:24:39.258Z,990.14
2018-04-25T01:25:39.240Z,990.11
2018-04-25T01:26:39.219Z,990.13
2018-04-25T01:27:39.216Z,990.10
2018-04-25T01:28:39.182Z,990.07
2018-04-25T01:29:39.170Z,990.10
2018-04-25T01:30:39.151Z,990.06
2018-04-25T01:31:39.132Z,990.08
2018-04-25T01:32:39.141Z,990.14
2018-04-25T01:33:39.128Z,990.06
2018-04-25T01:34:39.080Z,990.09
2018-04-25T01:35:39.055Z,990.04
2018-04-25T01:36:39.041Z,990.04
2018-04-25T01:37:39.030Z,990.04
2018-04-25T01:38:39.029Z,990.05
2018-04-25T01:39:39.017Z,990.08
2018-04-25T01:40:39.001Z,990.06
2018-04-25T01:41:38.949Z,990.04
2018-04-25T01:42:38.940Z,990.05
2018-04-25T01:43:38.915Z,990.05
2018-04-25T01:44:38.911Z,990.05
2018-04-25T01:45:38.908Z,990.05
2018-04-25T01:46:38.882Z,990.07
2018-04-25T01:47:38.860Z,990.07
2018-04-25T01:48:38.847Z,990.06
2018-04-25T01:49:38.812Z,990.08
2018-04-25T01:50:38.803Z,990.01
2018-04-25T01:51:38.796Z,990.05
2018-04-25T01:52:38.764Z,990.00
2018-04-25T01:53:38.742Z,990.01
2018-04-25T01:54:38.751Z,990.06
2018-04-25T01:55:38.733Z,990.05
2018-04-25T01:56:38.713Z,990.04
2018-04-25T01:57:38.671Z,990.04
2018-04-25T01:58:38.678Z,990.01
2018-04-25T01:59:38.641Z,989.97
2018-04-25T02:00:38.637Z,989.97
2018-04-25T02:01:38.606Z,990.02
2018-04-25T02:02:38.595Z,990.01
2018-04-25T02:03:38.578Z,989.96
2018-04-25T02:04:38.557Z,990.02
2018-04-25T02:05:38.544Z,989.94
2018-04-25T02:06:38.547Z,989.96
2018-04-25T02:07:38.515Z,989.95
2018-04-25T02:08:38.512Z,989.90
2018-04-25T02:09:38.470Z,989.92
2018-04-25T02:10:38.458Z,989.92
2018-04-25T02:11:38.442Z,989.89
2018-04-25T02:12:38.426Z,989.85
2018-04-25T02:13:38.427Z,989.83
2018-04-25T02:14:38.407Z,989.84
2018-04-25T02:15:38.382Z,989.77
2018-04-25T02:16:38.375Z,989.78
2018-04-25T02:17:38.340Z,989.78
2018-04-25T02:18:38.336Z,989.77
2018-04-25T02:19:38.324Z,989.80
2018-04-25T02:20:38.302Z,989.81
2018-04-25T02:21:38.299Z,989.82
2018-04-25T02:22:38.269Z,989.80
2018-04-25T02:23:38.254Z,989.83
2018-04-25T02:24:38.235Z,989.82
2018-04-25T02:25:38.223Z,989.85
2018-04-25T02:26:38.201Z,989.79
2018-04-25T02:27:38.193Z,989.79
2018-04-25T02:28:38.171Z,989.76
2018-04-25T02:29:38.153Z,989.80
2018-04-25T02:30:38.144Z,989.83
2018-04-25T02:31:38.118Z,989.85
2018-04-25T02:32:38.102Z,989.86
2018-04-25T02:33:38.096Z,989.86
2018-04-25T02:34:38.092Z,989.87
2018-04-25T02:35:38.054Z,989.90
2018-04-25T02:36:38.069Z,989.86
2018-04-25T02:37:38.029Z,989.84
2018-04-25T02:38:38.010Z,989.83
2018-04-25T02:39:37.995Z,989.81
2018-04-25T02:40:38.004Z,989.84
2018-04-25T02:41:37.991Z,989.81
2018-04-25T02:42:37.952Z,989.83
2018-04-25T02:43:37.926Z,989.77
2018-04-25T02:44:37.919Z,989.77
2018-04-25T02:45:37.899Z,989.73
2018-04-25T02:46:37.882Z,989.68
2018-04-25T02:47:37.873Z,989.71
2018-04-25T02:48:37.867Z,989.63
2018-04-25T02:49:37.844Z,989.61
2018-04-25T02:50:37.828Z,989.64
2018-04-25T02:51:37.815Z,989.67
2018-04-25T02:52:37.812Z,989.67
2018-04-25T02:53:37.788Z,989.69
2018-04-25T02:54:37.783Z,989.63
2018-04-25T02:55:37.775Z,989.63
2018-04-25T02:56:37.732Z,989.64
2018-04-25T02:57:37.732Z,989.58
2018-04-25T02:58:37.704Z,989.60
2018-04-25T02:59:37.687Z,989.61
2018-04-25T03:00:37.674Z,989.57
2018-04-25T03:01:37.665Z,989.61
2018-04-25T03:02:37.655Z,989.59
2018-04-25T03:03:37.638Z,989.60
2018-04-25T03:04:37.619Z,989.57
2018-04-25T03:05:37.628Z,989.59
2018-04-25T03:06:37.584Z,989.53
2018-04-25T03:07:37.574Z,989.59
2018-04-25T03:08:37.555Z,989.53
2018-04-25T03:09:37.558Z,989.54
2018-04-25T03:10:37.529Z,989.55
2018-04-25T03:11:37.507Z,989.57
2018-04-25T03:12:37.491Z,989.55
2018-04-25T03:13:37.500Z,989.55
2018-04-25T03:14:37.462Z,989.49
2018-04-25T03:15:37.453Z,989.50
2018-04-25T03:16:37.429Z,989.44
2018-04-25T03:17:37.415Z,989.47
2018-04-25T03:18:37.408Z,989.47
2018-04-25T03:19:37.391Z,989.49
2018-04-25T03:20:37.381Z,989.48
2018-04-25T03:21:37.375Z,989.44
2018-04-25T03:22:37.378Z,989.45
2018-04-25T03:23:37.333Z,989.39
2018-04-25T03:24:37.315Z,989.43
2018-04-25T03:25:37.305Z,989.39
2018-04-25T03:26:37.302Z,989.36
2018-04-25T03:27:37.264Z,989.32
2018-04-25T03:28:37.254Z,989.35
2018-04-25T03:29:37.240Z,989.42
2018-04-25T03:30:37.221Z,989.37
2018-04-25T03:31:37.212Z,989.41
2018-04-25T03:32:37.199Z,989.43
2018-04-25T03:33:37.174Z,989.44
2018-04-25T03:34:37.179Z,989.43
2018-04-25T03:35:37.151Z,989.47
2018-04-25T03:36:37.157Z,989.52
2018-04-25T03:37:37.131Z,989.53
2018-04-25T03:38:37.095Z,989.53
2018-04-25T03:39:37.080Z,989.57
2018-04-25T03:40:37.070Z,989.58
2018-04-25T03:41:37.081Z,989.59
2018-04-25T03:42:37.080Z,989.62
2018-04-25T03:43:37.019Z,989.60
2018-04-25T03:44:37.025Z,989.58
2018-04-25T03:45:36.989Z,989.60
2018-04-25T03:46:36.974Z,989.61
2018-04-25T03:47:36.965Z,989.68
2018-04-25T03:48:36.949Z,989.65
2018-04-25T03:49:36.942Z,989.63
2018-04-25T03:50:36.926Z,989.60
2018-04-25T03:51:36.907Z,989.60
2018-04-25T03:52:36.884Z,989.58
2018-04-25T03:53:36.872Z,989.59
2018-04-25T03:54:36.861Z,989.55
2018-04-25T03:55:36.838Z,989.56
2018-04-25T03:56:36.846Z,989.59
2018-04-25T03:57:36.812Z,989.59
2018-04-25T03:58:36.795Z,989.64
2018-04-25T03:59:36.788Z,989.61
2018-04-25T04:00:36.770Z,989.61
2018-04-25T04:01:36.777Z,989.63
2018-04-25T04:02:36.738Z,989.60
2018-04-25T04:03:36.751Z,989.61
2018-04-25T04:04:36.706Z,989.62
2018-04-25T04:05:36.688Z,989.57
2018-04-25T04:06:36.673Z,989.59
2018-04-25T04:07:36.659Z,989.68
2018-04-25T04:08:36.645Z,989.58
2018-04-25T04:09:36.634Z,989.59
2018-04-25T04:10:36.620Z,989.55
2018-04-25T04:11:36.607Z,989.55
2018-04-25T04:12:36.582Z,989.58
2018-04-25T04:13:36.598Z,989.57
2018-04-25T04:14:36.562Z,989.55
2018-04-25T04:15:36.569Z,989.64
2018-04-25T04:16:36.534Z,989.61
2018-04-25T04:17:36.533Z,989.61
2018-04-25T04:18:36.502Z,989.55
2018-04-25T04:19:36.503Z,989.60
2018-04-25T04:20:36.463Z,989.64
2018-04-25T04:21:36.460Z,989.66
2018-04-25T04:22:36.447Z,989.68
2018-04-25T04:23:36.419Z,989.65
2018-04-25T04:24:36.419Z,989.63
2018-04-25T04:25:36.396Z,989.62
2018-04-25T04:26:36.413Z,989.63
2018-04-25T04:27:36.371Z,989.55
2018-04-25T04:28:36.359Z,989.60
2018-04-25T04:29:36.339Z,989.64
2018-04-25T04:30:36.320Z,989.62
2018-04-25T04:31:36.310Z,989.67
2018-04-25T04:32:36.301Z,989.61
2018-04-25T04:33:36.286Z,989.65
2018-04-25T04:34:36.265Z,989.64
2018-04-25T04:35:36.253Z,989.63
2018-04-25T04:36:36.253Z,989.64
2018-04-25T04:37:36.222Z,989.64
2018-04-25T04:38:36.214Z,989.63
2018-04-25T04:39:36.202Z,989.59
2018-04-25T04:40:36.199Z,989.69
2018-04-25T04:41:36.179Z,989.68
2018-04-25T04:42:36.156Z,989.72
2018-04-25T04:43:36.147Z,989.74
2018-04-25T04:44:36.133Z,989.67
2018-04-25T04:45:36.113Z,989.75
2018-04-25T04:46:36.125Z,989.74
2018-04-25T04:47:36.081Z,989.66
2018-04-25T04:48:36.069Z,989.71
2018-04-25T04:49:36.149Z,989.68
2018-04-25T04:50:36.053Z,989.72
2018-04-25T04:51:36.039Z,989.73
2018-04-25T04:52:36.012Z,989.73
2018-04-25T04:53:36.002Z,989.68
2018-04-25T04:54:35.986Z,989.64
2018-04-25T04:55:35.989Z,989.66
2018-04-25T04:56:35.966Z,989.67
2018-04-25T04:57:35.951Z,989.67
2018-04-25T04:58:35.947Z,989.67
2018-04-25T04:59:35.987Z,989.62
2018-04-25T05:00:35.916Z,989.67
2018-04-25T05:01:35.897Z,989.65
2018-04-25T05:02:35.884Z,989.69
2018-04-25T05:03:35.865Z,989.71
2018-04-25T05:04:35.855Z,989.68
2018-04-25T05:05:35.843Z,989.62
2018-04-25T05:06:35.848Z,989.72
2018-04-25T05:07:35.809Z,989.72
2018-04-25T05:08:35.825Z,989.72
2018-04-25T05:09:35.786Z,989.73
2018-04-25T05:10:35.774Z,989.74
2018-04-25T05:11:35.761Z,989.71
2018-04-25T05:12:35.742Z,989.72
2018-04-25T05:13:35.732Z,989.70
2018-04-25T05:14:35.716Z,989.69
2018-04-25T05:15:35.708Z,989.63
2018-04-25T05:16:35.690Z,989.67
2018-04-25T05:17:35.674Z,989.66
2018-04-25T05:18:35.729Z,989.67
2018-04-25T05:19:35.652Z,989.66
2018-04-25T05:20:35.640Z,989.68
2018-04-25T05:21:35.631Z,989.71
2018-04-25T05:22:35.637Z,989.74
2018-04-25T05:23:35.605Z,989.71
2018-04-25T05:24:35.602Z,989.70
2018-04-25T05:25:35.587Z,989.67
2018-04-25T05:26:35.565Z,989.70
2018-04-25T05:27:35.548Z,989.74
2018-04-25T05:28:35.542Z,989.71
2018-04-25T05:29:35.519Z,989.71
2018-04-25T05:30:35.513Z,989.74
2018-04-25T05:31:35.519Z,989.72
2018-04-25T05:32:35.480Z,989.70
2018-04-25T05:33:35.468Z,989.72
2018-04-25T05:34:35.449Z,989.67
2018-04-25T05:35:35.438Z,989.70
2018-04-25T05:36:35.442Z,989.74
2018-04-25T05:37:35.434Z,989.68
2018-04-25T05:38:35.502Z,989.71
2018-04-25T05:39:35.387Z,989.68
2018-04-25T05:40:35.396Z,989.74
2018-04-25T05:41:35.374Z,989.76
2018-04-25T05:42:35.349Z,989.82
2018-04-25T05:43:35.345Z,989.77
2018-04-25T05:44:35.323Z,989.80
2018-04-25T05:45:35.307Z,989.85
2018-04-25T05:46:35.300Z,989.86
2018-04-25T05:47:35.277Z,989.83
2018-04-25T05:48:35.284Z,989.84
2018-04-25T05:49:35.281Z,989.77
2018-04-25T05:50:35.284Z,989.83
2018-04-25T05:51:35.298Z,989.85
2018-04-25T05:52:35.216Z,989.82
2018-04-25T05:53:35.203Z,989.83
2018-04-25T05:54:35.222Z,989.78
2018-04-25T05:55:35.180Z,989.88
2018-04-25T05:56:35.170Z,989.91
2018-04-25T05:57:35.167Z,989.84
2018-04-25T05:58:35.141Z,989.88
2018-04-25T05:59:35.125Z,989.91
2018-04-25T06:00:35.109Z,989.90
2018-04-25T06:01:35.102Z,989.89
2018-04-25T06:02:35.092Z,989.85
2018-04-25T06:03:35.077Z,989.95
2018-04-25T06:04:35.077Z,989.94
2018-04-25T06:05:35.068Z,989.97
2018-04-25T06:06:35.039Z,989.93
2018-04-25T06:07:35.030Z,989.94
2018-04-25T06:08:35.013Z,989.93
2018-04-25T06:09:35.004Z,989.98
2018-04-25T06:10:34.991Z,989.93
2018-04-25T06:11:34.972Z,989.90
2018-04-25T06:12:35.012Z,989.94
2018-04-25T06:13:34.956Z,989.98
2018-04-25T06:14:34.951Z,989.98
2018-04-25T06:15:34.934Z,990.02
2018-04-25T06:16:34.946Z,990.04
2018-04-25T06:17:34.938Z,990.05
2018-04-25T06:18:34.898Z,989.99
2018-04-25T06:19:34.889Z,990.05
2018-04-25T06:20:34.880Z,990.04
2018-04-25T06:21:34.870Z,989.96
2018-04-25T06:22:34.857Z,990.02
2018-04-25T06:23:34.852Z,990.06
2018-04-25T06:24:34.831Z,990.04
2018-04-25T06:25:34.825Z,990.05
2018-04-25T06:26:34.891Z,990.03
2018-04-25T06:27:34.809Z,990.05
2018-04-25T06:28:34.815Z,990.06
2018-04-25T06:29:34.780Z,990.03
2018-04-25T06:30:34.768Z,990.02
2018-04-25T06:31:34.761Z,989.95
2018-04-25T06:32:34.748Z,990.00
2018-04-25T06:33:34.746Z,989.99
2018-04-25T06:34:34.724Z,990.04
2018-04-25T06:35:34.724Z,990.07
2018-04-25T06:36:34.703Z,990.11
2018-04-25T06:37:34.688Z,990.05
2018-04-25T06:38:34.691Z,990.07
2018-04-25T06:39:34.759Z,990.06
2018-04-25T06:40:34.662Z,990.00
2018-04-25T06:41:34.672Z,990.07
2018-04-25T06:42:34.669Z,990.10
2018-04-25T06:43:34.641Z,990.01
2018-04-25T06:44:34.620Z,990.08
2018-04-25T06:45:34.613Z,990.07
2018-04-25T06:46:34.613Z,990.06
2018-04-25T06:47:34.581Z,990.04
2018-04-25T06:48:34.597Z,990.01
2018-04-25T06:49:34.593Z,990.09
2018-04-25T06:50:34.565Z,990.12
2018-04-25T06:51:34.538Z,989.93
2018-04-25T06:52:34.524Z,990.06
2018-04-25T06:53:34.511Z,990.11
2018-04-25T06:54:34.497Z,990.04
2018-04-25T06:55:34.491Z,990.03
2018-04-25T06:56:34.469Z,990.04
2018-04-25T06:57:34.472Z,990.05
2018-04-25T06:58:34.447Z,990.06
2018-04-25T06:59:34.445Z,990.15
2018-04-25T07:00:34.438Z,989.98
2018-04-25T07:01:34.419Z,989.95
2018-04-25T07:02:34.419Z,989.95
2018-04-25T07:03:34.393Z,989.93
2018-04-25T07:04:34.422Z,989.95
2018-04-25T07:05:34.399Z,990.04
2018-04-25T07:06:34.368Z,990.03
2018-04-25T07:07:34.367Z,989.98
2018-04-25T07:08:34.342Z,989.99
2018-04-25T07:09:34.336Z,990.09
2018-04-25T07:10:34.327Z,990.16
2018-04-25T07:11:34.313Z,990.11
2018-04-25T07:12:34.339Z,990.09
2018-04-25T07:13:34.289Z,990.21
2018-04-25T07:14:34.289Z,990.14
2018-04-25T07:15:34.272Z,990.19
2018-04-25T07:16:34.259Z,990.18
2018-04-25T07:17:34.246Z,990.09
2018-04-25T07:18:34.246Z,990.30
2018-04-25T07:19:34.234Z,990.30
2018-04-25T07:20:34.227Z,990.23
2018-04-25T07:21:34.231Z,990.26
2018-04-25T07:22:34.240Z,990.28
2018-04-25T07:23:34.193Z,990.33
2018-04-25T07:24:34.198Z,990.32
2018-04-25T07:25:34.202Z,990.44
2018-04-25T07:26:34.173Z,990.38
2018-04-25T07:27:34.171Z,990.45
2018-04-25T07:28:34.186Z,990.43
2018-04-25T07:29:34.159Z,990.47
2018-04-25T07:30:34.151Z,990.51
2018-04-25T07:31:34.139Z,990.40
2018-04-25T07:32:34.144Z,990.49
2018-04-25T07:33:34.132Z,990.52
2018-04-25T07:34:34.132Z,990.54
2018-04-25T07:35:34.103Z,990.50
2018-04-25T07:36:34.094Z,990.54
2018-04-25T07:37:34.094Z,990.50
2018-04-25T07:38:34.084Z,990.60
2018-04-25T07:39:34.079Z,990.58
2018-04-25T07:40:34.059Z,990.64
2018-04-25T07:41:34.053Z,990.54
2018-04-25T07:42:34.062Z,990.53
2018-04-25T07:43:34.027Z,990.60
2018-04-25T07:44:34.033Z,990.66
2018-04-25T07:45:34.021Z,990.65
2018-04-25T07:46:34.011Z,990.62
2018-04-25T07:47:34.021Z,990.65
2018-04-25T07:48:33.991Z,990.65
2018-04-25T07:49:33.970Z,990.67
2018-04-25T07:50:33.993Z,990.71
2018-04-25T07:51:33.970Z,990.68
2018-04-25T07:52:33.957Z,990.69
2018-04-25T07:53:33.941Z,990.82
2018-04-25T07:54:33.924Z,990.63
2018-04-25T07:55:33.919Z,990.72
2018-04-25T07:56:33.906Z,990.68
2018-04-25T07:57:33.899Z,990.63
2018-04-25T07:58:33.884Z,990.69
2018-04-25T07:59:33.893Z,990.67
2018-04-25T08:00:33.880Z,990.65
2018-04-25T08:01:33.857Z,990.67
2018-04-25T08:02:33.854Z,990.67
2018-04-25T08:03:33.847Z,990.73
2018-04-25T08:04:33.837Z,990.68
2018-04-25T08:05:33.822Z,990.70
2018-04-25T08:06:33.804Z,990.69
2018-04-25T08:07:33.800Z,990.64
2018-04-25T08:08:33.797Z,990.69
2018-04-25T08:09:33.784Z,990.70
2018-04-25T08:10:33.762Z,990.77
2018-04-25T08:11:33.765Z,990.72
2018-04-25T08:12:33.752Z,990.75
2018-04-25T08:13:33.746Z,990.79
2018-04-25T08:14:33.732Z,990.76
2018-04-25T08:15:33.723Z,990.83
2018-04-25T08:16:33.713Z,990.75
2018-04-25T08:17:33.714Z,990.73
2018-04-25T08:18:33.690Z,990.71
2018-04-25T08:19:33.710Z,990.69
2018-04-25T08:20:33.683Z,990.77
2018-04-25T08:21:33.672Z,990.75
2018-04-25T08:22:33.663Z,990.71
2018-04-25T08:23:33.668Z,990.74
2018-04-25T08:24:33.655Z,990.73
2018-04-25T08:25:33.631Z,990.70
2018-04-25T08:26:33.663Z,990.73
2018-04-25T08:27:33.637Z,990.71
2018-04-25T08:28:33.631Z,990.75
2018-04-25T08:29:33.593Z,990.72
2018-04-25T08:30:33.616Z,990.76
2018-04-25T08:31:33.594Z,990.75
2018-04-25T08:32:33.568Z,990.77
2018-04-25T08:33:33.645Z,990.72
2018-04-25T08:34:33.562Z,990.84
2018-04-25T08:35:33.545Z,990.81
2018-04-25T08:36:33.536Z,990.84
2018-04-25T08:37:33.537Z,990.85
2018-04-25T08:38:33.549Z,990.87
2018-04-25T08:39:33.514Z,990.79
2018-04-25T08:40:33.529Z,990.77
2018-04-25T08:41:33.494Z,990.78
2018-04-25T08:42:33.485Z,990.75
2018-04-25T08:43:33.483Z,990.84
2018-04-25T08:44:33.481Z,990.89
2018-04-25T08:45:33.487Z,990.93
2018-04-25T08:46:33.453Z,990.95
2018-04-25T08:47:33.441Z,990.91
2018-04-25T08:48:33.432Z,990.92
2018-04-25T08:49:33.429Z,991.03
2018-04-25T08:50:33.416Z,990.98
2018-04-25T08:51:33.426Z,990.99
2018-04-25T08:52:33.422Z,990.99
2018-04-25T08:53:33.403Z,990.92
2018-04-25T08:54:33.391Z,990.90
2018-04-25T08:55:33.394Z,990.96
2018-04-25T08:56:33.372Z,990.98
2018-04-25T08:57:33.369Z,991.03
2018-04-25T08:58:33.359Z,991.01
2018-04-25T08:59:33.346Z,991.05
2018-04-25T09:00:33.349Z,991.03
2018-04-25T09:01:33.336Z,990.94
2018-04-25T09:02:33.330Z,990.99
2018-04-25T09:03:33.311Z,991.07
2018-04-25T09:04:33.310Z,990.95
2018-04-25T09:05:33.310Z,990.97
2018-04-25T09:06:33.294Z,990.95
2018-04-25T09:07:33.283Z,990.90
2018-04-25T09:08:33.281Z,990.98
2018-04-25T09:09:33.276Z,990.95
2018-04-25T09:10:33.256Z,990.97
2018-04-25T09:11:33.252Z,990.94
2018-04-25T09:12:33.259Z,990.92
2018-04-25T09:13:33.243Z,990.96
2018-04-25T09:14:33.237Z,990.89
2018-04-25T09:15:33.301Z,990.94
2018-04-25T09:16:33.212Z,990.96
2018-04-25T09:17:33.202Z,990.95
2018-04-25T09:18:33.189Z,990.93
2018-04-25T09:19:33.179Z,991.02
2018-04-25T09:20:33.173Z,990.90
2018-04-25T09:21:33.183Z,990.92
2018-04-25T09:22:33.157Z,990.95
2018-04-25T09:23:33.157Z,990.97
2018-04-25T09:24:33.213Z,990.96
2018-04-25T09:25:33.132Z,990.98
2018-04-25T09:26:33.119Z,990.96
2018-04-25T09:27:33.113Z,990.95
2018-04-25T09:28:33.106Z,991.00
2018-04-25T09:29:33.090Z,991.02
2018-04-25T09:30:33.090Z,990.99
2018-04-25T09:31:33.074Z,990.98
2018-04-25T09:32:33.064Z,990.88
2018-04-25T09:33:33.049Z,990.90
2018-04-25T09:34:33.063Z,990.88
2018-04-25T09:35:33.036Z,990.90
2018-04-25T09:36:33.035Z,990.96
2018-04-25T09:37:33.015Z,990.91
2018-04-25T09:38:33.000Z,990.89
2018-04-25T09:39:33.000Z,990.95
2018-04-25T09:40:32.990Z,990.87
2018-04-25T09:41:32.984Z,990.83
2018-04-25T09:42:32.966Z,990.90
2018-04-25T09:43:32.971Z,990.92
2018-04-25T09:44:32.943Z,990.96
2018-04-25T09:45:32.939Z,990.87
2018-04-25T09:46:32.929Z,990.93
2018-04-25T09:47:32.924Z,990.87
2018-04-25T09:48:32.904Z,990.93
2018-04-25T09:49:32.905Z,990.91
2018-04-25T09:50:32.885Z,990.91
2018-04-25T09:51:32.886Z,990.89
2018-04-25T09:52:32.866Z,990.94
2018-04-25T09:53:32.847Z,990.91
2018-04-25T09:54:32.843Z,990.93
2018-04-25T09:55:32.842Z,990.94
2018-04-25T09:56:32.820Z,990.95
2018-04-25T09:57:32.817Z,991.01
2018-04-25T09:58:32.801Z,990.95
2018-04-25T09:59:32.801Z,990.95
2018-04-25T10:00:32.785Z,990.98
2018-04-25T10:01:32.767Z,990.98
2018-04-25T10:02:32.762Z,990.97
2018-04-25T10:03:32.762Z,991.00
2018-04-25T10:04:32.740Z,991.03
2018-04-25T10:05:32.725Z,990.98
2018-04-25T10:06:32.715Z,990.99
2018-04-25T10:07:32.701Z,991.01
2018-04-25T10:08:32.691Z,991.02
2018-04-25T10:09:32.680Z,990.98
2018-04-25T10:10:32.674Z,990.98
2018-04-25T10:11:32.659Z,991.07
2018-04-25T10:12:32.647Z,990.99
2018-04-25T10:13:32.635Z,991.01
2018-04-25T10:14:32.632Z,991.03
2018-04-25T10:15:32.622Z,991.09
2018-04-25T10:16:32.615Z,991.15
2018-04-25T10:17:32.591Z,991.12
2018-04-25T10:18:32.584Z,991.14
2018-04-25T10:19:32.577Z,991.15
2018-04-25T10:20:32.555Z,991.07
2018-04-25T10:21:32.556Z,991.13
2018-04-25T10:22:32.530Z,991.19
2018-04-25T10:23:32.528Z,991.16
2018-04-25T10:24:32.520Z,991.18
2018-04-25T10:25:32.516Z,991.11
2018-04-25T10:26:32.498Z,991.15
2018-04-25T10:27:32.515Z,991.16
2018-04-25T10:28:32.498Z,991.09
2018-04-25T10:29:32.469Z,991.21
2018-04-25T10:30:32.463Z,991.12
2018-04-25T10:31:32.439Z,991.10
2018-04-25T10:32:32.433Z,991.10
2018-04-25T10:33:32.427Z,991.11
2018-04-25T10:34:32.444Z,991.13
2018-04-25T10:35:32.402Z,991.18
2018-04-25T10:36:32.402Z,991.18
2018-04-25T10:37:32.393Z,991.08
2018-04-25T10:38:32.384Z,991.18
2018-04-25T10:39:32.392Z,991.14
2018-04-25T10:40:32.433Z,991.16
2018-04-25T10:41:32.361Z,991.17
2018-04-25T10:42:32.351Z,991.13
2018-04-25T10:43:32.344Z,991.16
2018-04-25T10:44:32.341Z,991.14
2018-04-25T10:45:32.344Z,991.19
2018-04-25T10:46:32.315Z,991.15
2018-04-25T10:47:32.303Z,991.14
2018-04-25T10:48:32.305Z,991.14
2018-04-25T10:49:32.296Z,991.17
2018-04-25T10:50:32.290Z,991.20
2018-04-25T10:51:32.277Z,991.14
2018-04-25T10:52:32.292Z,991.12
2018-04-25T10:53:32.263Z,991.04
2018-04-25T10:54:32.261Z,991.09
2018-04-25T10:55:32.257Z,990.98
2018-04-25T10:56:32.244Z,991.04
2018-04-25T10:57:32.234Z,991.02
2018-04-25T10:58:32.219Z,991.00
2018-04-25T10:59:32.212Z,990.98
2018-04-25T11:00:32.196Z,991.02
2018-04-25T11:01:32.212Z,991.05
2018-04-25T11:02:32.265Z,991.04
2018-04-25T11:03:32.170Z,991.01
2018-04-25T11:04:32.177Z,991.01
2018-04-25T11:05:32.160Z,990.98
2018-04-25T11:06:32.154Z,991.04
2018-04-25T11:07:32.191Z,990.95
2018-04-25T11:08:32.130Z,990.99
2018-04-25T11:09:32.129Z,990.95
2018-04-25T11:10:32.103Z,990.95
2018-04-25T11:11:32.098Z,990.96
2018-04-25T11:12:32.087Z,991.09
2018-04-25T11:13:32.078Z,990.89
2018-04-25T11:14:32.077Z,990.89
2018-04-25T11:15:32.052Z,990.94
2018-04-25T11:16:32.044Z,990.89
2018-04-25T11:17:32.025Z,990.87
2018-04-25T11:18:32.028Z,990.89
2018-04-25T11:19:32.018Z,990.92
2018-04-25T11:20:32.005Z,990.88
2018-04-25T11:21:31.986Z,990.89
2018-04-25T11:22:31.982Z,990.89
2018-04-25T11:23:31.963Z,990.93
2018-04-25T11:24:31.950Z,990.98
2018-04-25T11:25:31.951Z,990.95
2018-04-25T11:26:32.029Z,990.97
2018-04-25T11:27:31.928Z,991.00
2018-04-25T11:28:31.909Z,991.01
2018-04-25T11:29:31.909Z,990.98
2018-04-25T11:30:31.882Z,990.97
2018-04-25T11:31:31.880Z,991.01
2018-04-25T11:32:31.869Z,991.00
2018-04-25T11:33:31.859Z,990.98
2018-04-25T11:34:31.844Z,990.99
2018-04-25T11:35:31.825Z,991.00
2018-04-25T11:36:31.822Z,991.05
2018-04-25T11:37:31.826Z,991.08
2018-04-25T11:38:31.799Z,991.05
2018-04-25T11:39:31.791Z,991.02
2018-04-25T11:40:31.777Z,990.99
2018-04-25T11:41:31.764Z,991.07
2018-04-25T11:42:31.755Z,991.06
2018-04-25T11:43:31.739Z,991.07
2018-04-25T11:44:31.732Z,991.10
2018-04-25T11:45:31.726Z,991.10
2018-04-25T11:46:31.714Z,991.10
2018-04-25T11:47:31.698Z,991.17
2018-04-25T11:48:31.697Z,991.17
2018-04-25T11:49:31.668Z,991.12
2018-04-25T11:50:31.662Z,991.12
2018-04-25T11:51:31.649Z,991.16
2018-04-25T11:52:31.637Z,991.14
2018-04-25T11:53:31.647Z,991.20
2018-04-25T11:54:31.617Z,991.19
2018-04-25T11:55:31.604Z,991.21
2018-04-25T11:56:31.602Z,991.22
2018-04-25T11:57:31.593Z,991.22
2018-04-25T11:58:31.630Z,991.13
2018-04-25T11:59:31.585Z,991.11
2018-04-25T12:00:31.562Z,991.12
2018-04-25T12:01:31.550Z,991.20
2018-04-25T12:02:31.551Z,991.06
2018-04-25T12:03:31.531Z,991.19
2018-04-25T12:04:31.515Z,991.19
2018-04-25T12:05:31.505Z,991.27
2018-04-25T12:06:31.497Z,991.32
2018-04-25T12:07:31.483Z,991.07
2018-04-25T12:08:31.489Z,991.25
2018-04-25T12:09:31.496Z,991.19
2018-04-25T12:10:31.467Z,991.27
2018-04-25T12:11:31.455Z,991.32
2018-04-25T12:12:31.438Z,991.22
2018-04-25T12:13:31.436Z,991.18
2018-04-25T12:14:31.426Z,991.12
2018-04-25T12:15:31.413Z,991.19
2018-04-25T12:16:31.420Z,991.10
2018-04-25T12:17:31.410Z,991.22
2018-04-25T12:18:31.404Z,991.14
2018-04-25T12:19:31.394Z,991.19
2018-04-25T12:20:31.384Z,991.16
2018-04-25T12:21:31.382Z,991.19
2018-04-25T12:22:31.382Z,991.14
2018-04-25T12:23:31.372Z,991.18
2018-04-25T12:24:31.369Z,991.14
2018-04-25T12:25:31.366Z,991.24
2018-04-25T12:26:31.375Z,991.23
2018-04-25T12:27:31.356Z,991.33
2018-04-25T12:28:31.367Z,991.32